Brilliant, Alabama
Current Conditions -  °F | °C
As of 3:56 AM on Saturday 22 Nov 2014 (Local Time) from K1M4 Reporting Station
Clear Clear  
Wind Chill: 42°   Ceiling: Unl
Heat Index: 46°   Visibility: 10mi
Dew Point: 35°   Wind: 7mph
Humidity: 66%   Direction: 130°SE
Pressure: 30.37"   Gusts: NA
Location:  34.03°N, 87.76°W
Report Text: K1M4 220956Z AUTO 13006KT 10SM CLR 08/02 A3037 RMK AO2 T00770016 SLP291
Loading
Personal Weather Stations






























Interactive Weather Map New forecast layout! Learn more

10-Day Weather Forecast

Advertisements
Track Severe Weather on mobile